Time;durP1;ratioP1;P1;durP2;ratioP2;P2;SDS_P1;SDS_P2;PMS_P1;PMS_P2;Temp;Humidity;BMP_temperature;BMP_pressure;BME280_temperature;BME280_humidity;BME280_pressure;Samples;Min_cycle;Max_cycle;Signal;HPM_P1;HPM_P2
2023/06/12 00:02:23;;;;;;;;;;;;;;;;;;7364842;19;2081;-64
2023/06/12 00:04:54;;;;;;;;;;;;;;;;;;7366400;19;1693;-64
2023/06/12 00:07:22;;;;;;;;;;;;;;;;;;7367524;19;1864;-64
2023/06/12 00:09:50;;;;;;;;;;;;;;;;;;7368301;19;1512;-64
2023/06/12 00:12:18;;;;;;;;;;;;;;;;;;7363942;19;1833;-64
2023/06/12 00:14:46;;;;;;;;;;;;;;;;;;7367344;19;1470;-64
2023/06/12 00:17:15;;;;;;;;;;;;;;;;;;7362086;19;1838;-65
2023/06/12 00:19:43;;;;;;;;;;;;;;;;;;7362674;19;1664;-64
2023/06/12 00:22:11;;;;;;;;;;;;;;;;;;7362501;19;1792;-64
2023/06/12 00:24:39;;;;;;;;;;;;;;;;;;7366544;19;1626;-64
2023/06/12 00:27:07;;;;;;;;;;;;;;;;;;7366684;19;1453;-65
2023/06/12 00:29:35;;;;;;;;;;;;;;;;;;7365600;19;2036;-65
2023/06/12 00:32:03;;;;;;;;;;;;;;;;;;7362800;19;2041;-64
2023/06/12 00:34:32;;;;;;;;;;;;;;;;;;7365767;19;1653;-64
2023/06/12 00:37:00;;;;;;;;;;;;;;;;;;7363283;19;1870;-64
2023/06/12 00:39:28;;;;;;;;;;;;;;;;;;7365724;19;1662;-63
2023/06/12 00:41:56;;;;;;;;;;;;;;;;;;7362752;19;2102;-64
2023/06/12 00:44:24;;;;;;;;;;;;;;;;;;7372191;19;1622;-63
2023/06/12 00:46:52;;;;;;;;;;;;;;;;;;7371528;19;1753;-64
2023/06/12 00:49:21;;;;;;;;;;;;;;;;;;7372788;19;1510;-64
2023/06/12 00:51:49;;;;;;;;;;;;;;;;;;7367064;19;1320;-65
2023/06/12 00:54:17;;;;;;;;;;;;;;;;;;7368415;19;878;-64
2023/06/12 00:56:45;;;;;;;;;;;;;;;;;;7370103;19;2071;-64
2023/06/12 00:59:13;;;;;;;;;;;;;;;;;;7370478;19;1521;-64
2023/06/12 01:01:42;;;;;;;;;;;;;;;;;;7368869;19;1766;-64
2023/06/12 01:04:10;;;;;;;;;;;;;;;;;;7372397;19;1506;-66
2023/06/12 01:06:41;;;;;;;;;;;;;;;;;;7369200;19;2158;-64
2023/06/12 01:09:09;;;;;;;;;;;;;;;;;;7369242;19;1697;-65
2023/06/12 01:11:37;;;;;;;;;;;;;;;;;;7367665;19;1707;-65
2023/06/12 01:14:05;;;;;;;;;;;;;;;;;;7370149;19;1690;-65
2023/06/12 01:16:35;;;;;;;;;;;;;;;;;;7367439;19;1850;-65
2023/06/12 01:19:05;;;;;;;;;;;;;;;;;;7367778;19;781;-65
2023/06/12 01:21:36;;;;;;;;;;;;;;;;;;7365162;19;1210;-65
2023/06/12 01:24:05;;;;;;;;;;;;;;;;;;7370157;19;1984;-66
2023/06/12 01:26:36;;;;;;;;;;;;;;;;;;7369224;19;1926;-65
2023/06/12 01:29:04;;;;;;;;;;;;;;;;;;7369697;19;1824;-65
2023/06/12 01:31:34;;;;;;;;;;;;;;;;;;7366927;19;1349;-65
2023/06/12 01:34:02;;;;;;;;;;;;;;;;;;7369333;19;1969;-65
2023/06/12 01:36:32;;;;;;;;;;;;;;;;;;7369824;19;1904;-65
2023/06/12 01:39:01;;;;;;;;;;;;;;;;;;7366660;19;2320;-66
2023/06/12 01:41:29;;;;;;;;;;;;;;;;;;7370831;19;1856;-65
2023/06/12 01:43:58;;;;;;;;;;;;;;;;;;7367866;19;1965;-65
2023/06/12 01:46:26;;;;;;;;;;;;;;;;;;7370300;19;1497;-64
2023/06/12 01:48:54;;;;;;;;;;;;;;;;;;7369047;19;1504;-65
2023/06/12 01:51:22;;;;;;;;;;;;;;;;;;7368588;19;2112;-65
2023/06/12 01:53:51;;;;;;;;;;;;;;;;;;7367743;19;2013;-64
2023/06/12 01:56:24;;;;;;;;;;;;;;;;;;7368809;19;1698;-65
2023/06/12 01:58:52;;;;;;;;;;;;;;;;;;7365459;19;1994;-65
2023/06/12 02:01:41;;;;;;;;;;;;;;;;;;7370043;19;1584;-65
2023/06/12 02:04:11;;;;;;;;;;;;;;;;;;7369137;19;2136;-65
2023/06/12 02:06:39;;;;;;;;;;;;;;;;;;7371256;19;1814;-64
2023/06/12 02:09:07;;;;;;;;;;;;;;;;;;7371196;19;1585;-65
2023/06/12 02:11:35;;;;;;;;;;;;;;;;;;7368659;19;1615;-65
2023/06/12 02:14:04;;;;;;;;;;;;;;;;;;7368084;19;1995;-65
2023/06/12 02:16:32;;;;;;;;;;;;;;;;;;7369317;19;1785;-65
2023/06/12 02:19:00;;;;;;;;;;;;;;;;;;7362844;19;1858;-65
2023/06/12 02:21:29;;;;;;;;;;;;;;;;;;7365052;19;1821;-65
2023/06/12 02:23:59;;;;;;;;;;;;;;;;;;7367669;19;1747;-65
2023/06/12 02:26:29;;;;;;;;;;;;;;;;;;7368323;19;1883;-64
2023/06/12 02:28:57;;;;;;;;;;;;;;;;;;7369148;19;1877;-65
2023/06/12 02:31:25;;;;;;;;;;;;;;;;;;7367080;19;1914;-65
2023/06/12 02:33:54;;;;;;;;;;;;;;;;;;7367901;19;1736;-66
2023/06/12 02:36:22;;;;;;;;;;;;;;;;;;7367918;19;1873;-65
2023/06/12 02:38:51;;;;;;;;;;;;;;;;;;7364701;19;1846;-65
2023/06/12 02:41:20;;;;;;;;;;;;;;;;;;7367040;19;1783;-65
2023/06/12 02:43:48;;;;;;;;;;;;;;;;;;7367997;19;1771;-65
2023/06/12 02:46:16;;;;;;;;;;;;;;;;;;7367933;19;1697;-65
2023/06/12 02:48:44;;;;;;;;;;;;;;;;;;7364330;19;873;-65
2023/06/12 02:51:12;;;;;;;;;;;;;;;;;;7367203;19;1695;-65
2023/06/12 02:53:40;;;;;;;;;;;;;;;;;;7368120;19;1841;-65
2023/06/12 02:56:08;;;;;;;;;;;;;;;;;;7369362;19;1742;-65
2023/06/12 02:58:39;;;;;;;;;;;;;;;;;;7368296;19;1865;-64
2023/06/12 03:01:08;;;;;;;;;;;;;;;;;;7364478;19;1242;-64
2023/06/12 03:03:37;;;;;;;;;;;;;;;;;;7367006;19;2006;-65
2023/06/12 03:06:06;;;;;;;;;;;;;;;;;;7364260;19;1977;-65
2023/06/12 03:08:34;;;;;;;;;;;;;;;;;;7367606;19;1427;-64
2023/06/12 03:11:02;;;;;;;;;;;;;;;;;;7367589;19;1693;-65
2023/06/12 03:13:31;;;;;;;;;;;;;;;;;;7362808;19;2188;-64
2023/06/12 03:15:59;;;;;;;;;;;;;;;;;;7367705;19;1496;-65
2023/06/12 03:18:28;;;;;;;;;;;;;;;;;;7360919;19;1855;-65
2023/06/12 03:20:56;;;;;;;;;;;;;;;;;;7365354;19;877;-65
2023/06/12 03:23:24;;;;;;;;;;;;;;;;;;7361889;19;1914;-65
2023/06/12 03:25:52;;;;;;;;;;;;;;;;;;7367183;19;1797;-65
2023/06/12 03:28:21;;;;;;;;;;;;;;;;;;7366196;19;1495;-64
2023/06/12 03:30:49;;;;;;;;;;;;;;;;;;7365653;19;801;-64
2023/06/12 03:33:17;;;;;;;;;;;;;;;;;;7361703;19;1911;-65
2023/06/12 03:35:46;;;;;;;;;;;;;;;;;;7366660;19;1822;-65
2023/06/12 03:38:15;;;;;;;;;;;;;;;;;;7364323;19;1853;-65
2023/06/12 03:40:43;;;;;;;;;;;;;;;;;;7366949;19;1969;-64
2023/06/12 03:43:11;;;;;;;;;;;;;;;;;;7362722;19;2043;-63
2023/06/12 03:45:39;;;;;;;;;;;;;;;;;;7365129;19;1897;-64
2023/06/12 03:48:08;;;;;;;;;;;;;;;;;;7366632;19;1492;-65
2023/06/12 03:50:36;;;;;;;;;;;;;;;;;;7364596;19;871;-65
2023/06/12 03:53:05;;;;;;;;;;;;;;;;;;7362597;19;1855;-65
2023/06/12 03:55:34;;;;;;;;;;;;;;;;;;7366120;19;1791;-64
2023/06/12 03:58:02;;;;;;;;;;;;;;;;;;7362430;19;2050;-64
2023/06/12 04:00:31;;;;;;;;;;;;;;;;;;7366325;19;1857;-66
2023/06/12 04:02:59;;;;;;;;;;;;;;;;;;7362658;19;1885;-65
2023/06/12 04:05:27;;;;;;;;;;;;;;;;;;7364554;19;1834;-66
2023/06/12 04:07:55;;;;;;;;;;;;;;;;;;7364348;19;1690;-66
2023/06/12 04:10:24;;;;;;;;;;;;;;;;;;7364952;19;1717;-65
2023/06/12 04:12:52;;;;;;;;;;;;;;;;;;7365003;19;1857;-66
2023/06/12 04:15:20;;;;;;;;;;;;;;;;;;7365621;19;1684;-65
2023/06/12 04:17:48;;;;;;;;;;;;;;;;;;7360242;19;1862;-65
2023/06/12 04:20:17;;;;;;;;;;;;;;;;;;7363872;19;1839;-66
2023/06/12 04:22:47;;;;;;;;;;;;;;;;;;7357778;19;1914;-66
2023/06/12 04:25:15;;;;;;;;;;;;;;;;;;7365523;19;1602;-66
2023/06/12 04:27:44;;;;;;;;;;;;;;;;;;7365618;19;1799;-65
2023/06/12 04:30:15;;;;;;;;;;;;;;;;;;7366213;19;1495;-65
2023/06/12 04:32:43;;;;;;;;;;;;;;;;;;7364325;19;1831;-65
2023/06/12 04:35:12;;;;;;;;;;;;;;;;;;7364980;19;1796;-65
2023/06/12 04:37:41;;;;;;;;;;;;;;;;;;7361570;19;1881;-67
2023/06/12 04:40:11;;;;;;;;;;;;;;;;;;7363379;19;1725;-66
2023/06/12 04:42:39;;;;;;;;;;;;;;;;;;7364350;19;1472;-66
2023/06/12 04:45:08;;;;;;;;;;;;;;;;;;7364634;19;1703;-65
2023/06/12 04:47:38;;;;;;;;;;;;;;;;;;7364144;19;1764;-67
2023/06/12 04:50:08;;;;;;;;;;;;;;;;;;7364804;19;1469;-66
2023/06/12 04:52:37;;;;;;;;;;;;;;;;;;7362169;19;1577;-66
2023/06/12 04:55:08;;;;;;;;;;;;;;;;;;7364232;19;2096;-65
2023/06/12 04:57:36;;;;;;;;;;;;;;;;;;7363838;19;1829;-66
2023/06/12 05:00:05;;;;;;;;;;;;;;;;;;7363163;19;1828;-65
2023/06/12 05:02:35;;;;;;;;;;;;;;;;;;7362593;19;2141;-64
2023/06/12 05:05:03;;;;;;;;;;;;;;;;;;7361453;19;2003;-66
2023/06/12 05:07:33;;;;;;;;;;;;;;;;;;7365781;19;1463;-68
2023/06/12 05:10:02;;;;;;;;;;;;;;;;;;7361293;19;749;-66
2023/06/12 05:12:32;;;;;;;;;;;;;;;;;;7363555;19;1694;-65
2023/06/12 05:15:01;;;;;;;;;;;;;;;;;;7363256;19;1312;-65
2023/06/12 05:17:31;;;;;;;;;;;;;;;;;;7362015;19;2073;-65
2023/06/12 05:20:01;;;;;;;;;;;;;;;;;;7360398;19;1892;-65
2023/06/12 05:22:29;;;;;;;;;;;;;;;;;;7360857;19;2108;-65
2023/06/12 05:24:57;;;;;;;;;;;;;;;;;;7359619;19;2039;-66
2023/06/12 05:27:26;;;;;;;;;;;;;;;;;;7362755;19;1883;-65
2023/06/12 05:29:54;;;;;;;;;;;;;;;;;;7365359;19;1624;-65
2023/06/12 05:32:22;;;;;;;;;;;;;;;;;;7365732;19;1215;-65
2023/06/12 05:34:51;;;;;;;;;;;;;;;;;;7369406;19;2013;-64
2023/06/12 05:37:19;;;;;;;;;;;;;;;;;;7368083;19;1884;-67
2023/06/12 05:39:47;;;;;;;;;;;;;;;;;;7369660;19;1878;-65
2023/06/12 05:42:15;;;;;;;;;;;;;;;;;;7365509;19;1211;-65
2023/06/12 05:44:46;;;;;;;;;;;;;;;;;;7367133;19;1904;-64
2023/06/12 05:47:14;;;;;;;;;;;;;;;;;;7370227;19;1640;-65
2023/06/12 05:49:42;;;;;;;;;;;;;;;;;;7365135;19;1818;-65
2023/06/12 05:52:11;;;;;;;;;;;;;;;;;;7369852;19;1871;-67
2023/06/12 05:54:39;;;;;;;;;;;;;;;;;;7368432;19;1797;-66
2023/06/12 05:57:07;;;;;;;;;;;;;;;;;;7370012;19;1793;-66
2023/06/12 05:59:35;;;;;;;;;;;;;;;;;;7365155;19;1849;-64
2023/06/12 06:02:04;;;;;;;;;;;;;;;;;;7368441;19;2219;-65
2023/06/12 06:04:32;;;;;;;;;;;;;;;;;;7368867;19;1851;-65
2023/06/12 06:07:00;;;;;;;;;;;;;;;;;;7368762;19;1631;-63
2023/06/12 06:09:29;;;;;;;;;;;;;;;;;;7367102;19;2150;-64
2023/06/12 06:11:58;;;;;;;;;;;;;;;;;;7369323;19;1338;-65
2023/06/12 06:14:26;;;;;;;;;;;;;;;;;;7365972;19;788;-66
2023/06/12 06:16:54;;;;;;;;;;;;;;;;;;7367590;19;1762;-66
2023/06/12 06:19:23;;;;;;;;;;;;;;;;;;7365268;19;1967;-68
2023/06/12 06:21:51;;;;;;;;;;;;;;;;;;7368122;19;1498;-65
2023/06/12 06:24:20;;;;;;;;;;;;;;;;;;7367278;19;839;-66
2023/06/12 06:26:48;;;;;;;;;;;;;;;;;;7365845;19;816;-66
2023/06/12 06:29:16;;;;;;;;;;;;;;;;;;7365564;19;827;-66
2023/06/12 06:31:44;;;;;;;;;;;;;;;;;;7364843;19;1323;-66
2023/06/12 06:34:13;;;;;;;;;;;;;;;;;;7365580;19;787;-66
2023/06/12 06:36:42;;;;;;;;;;;;;;;;;;7366824;19;900;-66
2023/06/12 06:39:10;;;;;;;;;;;;;;;;;;7362945;19;1865;-66
2023/06/12 06:41:38;;;;;;;;;;;;;;;;;;7365681;19;1327;-66
2023/06/12 06:44:06;;;;;;;;;;;;;;;;;;7364783;19;802;-66
2023/06/12 06:46:35;;;;;;;;;;;;;;;;;;7365073;19;2217;-65
2023/06/12 06:49:03;;;;;;;;;;;;;;;;;;7366206;19;1642;-65
2023/06/12 06:51:32;;;;;;;;;;;;;;;;;;7367881;19;2123;-66
2023/06/12 06:54:00;;;;;;;;;;;;;;;;;;7365236;19;2157;-68
2023/06/12 06:56:29;;;;;;;;;;;;;;;;;;7365604;19;1763;-66
2023/06/12 06:58:57;;;;;;;;;;;;;;;;;;7364821;19;2057;-65
2023/06/12 07:01:25;;;;;;;;;;;;;;;;;;7365728;19;1711;-66
2023/06/12 07:03:53;;;;;;;;;;;;;;;;;;7368766;19;2017;-66
2023/06/12 07:06:22;;;;;;;;;;;;;;;;;;7368722;19;1590;-65
2023/06/12 07:08:50;;;;;;;;;;;;;;;;;;7364549;19;1816;-65
2023/06/12 07:11:19;;;;;;;;;;;;;;;;;;7364047;19;1353;-65
2023/06/12 07:13:47;;;;;;;;;;;;;;;;;;7366244;19;859;-66
2023/06/12 07:16:15;;;;;;;;;;;;;;;;;;7366776;19;1374;-65
2023/06/12 07:18:43;;;;;;;;;;;;;;;;;;7364749;19;1834;-66
2023/06/12 07:21:11;;;;;;;;;;;;;;;;;;7366187;19;1650;-66
2023/06/12 07:23:40;;;;;;;;;;;;;;;;;;7363536;19;765;-66
2023/06/12 07:26:08;;;;;;;;;;;;;;;;;;7364566;19;768;-65
2023/06/12 07:28:36;;;;;;;;;;;;;;;;;;7364582;19;846;-65
2023/06/12 07:31:05;;;;;;;;;;;;;;;;;;7364303;19;854;-66
2023/06/12 07:33:33;;;;;;;;;;;;;;;;;;7362269;19;1266;-65
2023/06/12 07:36:01;;;;;;;;;;;;;;;;;;7364024;19;850;-66
2023/06/12 07:38:29;;;;;;;;;;;;;;;;;;7362673;19;1854;-66
2023/06/12 07:40:57;;;;;;;;;;;;;;;;;;7363217;19;899;-67
2023/06/12 07:43:25;;;;;;;;;;;;;;;;;;7362810;19;1296;-66
2023/06/12 07:45:54;;;;;;;;;;;;;;;;;;7364303;19;939;-66
2023/06/12 07:48:22;;;;;;;;;;;;;;;;;;7362822;19;827;-65
2023/06/12 07:50:50;;;;;;;;;;;;;;;;;;7363060;19;846;-66
2023/06/12 07:53:19;;;;;;;;;;;;;;;;;;7358545;19;1293;-67
2023/06/12 07:55:47;;;;;;;;;;;;;;;;;;7364977;19;855;-66
2023/06/12 07:58:17;;;;;;;;;;;;;;;;;;7365122;19;1809;-65
2023/06/12 08:00:45;;;;;;;;;;;;;;;;;;7361742;19;1845;-66
2023/06/12 08:03:15;;;;;;;;;;;;;;;;;;7361085;19;1256;-65
2023/06/12 08:05:45;;;;;;;;;;;;;;;;;;7362058;19;819;-65
2023/06/12 08:08:15;;;;;;;;;;;;;;;;;;7362236;19;1020;-66
2023/06/12 08:10:43;;;;;;;;;;;;;;;;;;7362372;19;845;-66
2023/06/12 08:13:13;;;;;;;;;;;;;;;;;;7359943;19;1288;-66
2023/06/12 08:15:41;;;;;;;;;;;;;;;;;;7361956;19;784;-65
2023/06/12 08:18:11;;;;;;;;;;;;;;;;;;7364445;19;781;-66
2023/06/12 08:20:39;;;;;;;;;;;;;;;;;;7359726;19;1863;-66
2023/06/12 08:23:07;;;;;;;;;;;;;;;;;;7359425;19;1351;-65
2023/06/12 08:25:36;;;;;;;;;;;;;;;;;;7363690;19;863;-66
2023/06/12 08:28:04;;;;;;;;;;;;;;;;;;7363049;19;782;-66
2023/06/12 08:30:32;;;;;;;;;;;;;;;;;;7362444;19;953;-64
2023/06/12 08:33:00;;;;;;;;;;;;;;;;;;7361108;19;1337;-65
2023/06/12 08:35:29;;;;;;;;;;;;;;;;;;7364042;19;1636;-65
2023/06/12 08:37:58;;;;;;;;;;;;;;;;;;7363221;19;1865;-64
2023/06/12 08:40:26;;;;;;;;;;;;;;;;;;7363130;19;2100;-66
2023/06/12 08:42:54;;;;;;;;;;;;;;;;;;7361471;19;1767;-67
2023/06/12 08:45:22;;;;;;;;;;;;;;;;;;7360346;19;1979;-67
2023/06/12 08:47:50;;;;;;;;;;;;;;;;;;7365651;19;1883;-65
2023/06/12 08:50:19;;;;;;;;;;;;;;;;;;7366078;19;1471;-65
2023/06/12 08:52:47;;;;;;;;;;;;;;;;;;7365517;19;1948;-65
2023/06/12 08:55:15;;;;;;;;;;;;;;;;;;7365884;19;1715;-65
2023/06/12 08:57:44;;;;;;;;;;;;;;;;;;7366094;19;1611;-66
2023/06/12 09:00:13;;;;;;;;;;;;;;;;;;7361103;19;1858;-66
2023/06/12 09:02:41;;;;;;;;;;;;;;;;;;7360499;19;2128;-65
2023/06/12 09:05:10;;;;;;;;;;;;;;;;;;7368036;19;2042;-65
2023/06/12 09:07:38;;;;;;;;;;;;;;;;;;7373057;19;1625;-65
2023/06/12 09:10:06;;;;;;;;;;;;;;;;;;7369349;19;861;-66
2023/06/12 09:12:35;;;;;;;;;;;;;;;;;;7368190;19;1353;-66
2023/06/12 09:15:03;;;;;;;;;;;;;;;;;;7369706;19;691;-66
2023/06/12 09:17:33;;;;;;;;;;;;;;;;;;7372400;19;1835;-69
2023/06/12 09:20:01;;;;;;;;;;;;;;;;;;7370071;19;2096;-66
2023/06/12 09:22:29;;;;;;;;;;;;;;;;;;7369514;19;1841;-66
2023/06/12 09:24:57;;;;;;;;;;;;;;;;;;7370288;19;2019;-66
2023/06/12 09:27:25;;;;;;;;;;;;;;;;;;7371635;19;1691;-67
2023/06/12 09:29:53;;;;;;;;;;;;;;;;;;7370428;19;1962;-67
2023/06/12 09:32:22;;;;;;;;;;;;;;;;;;7369880;19;1813;-66
2023/06/12 09:34:50;;;;;;;;;;;;;;;;;;7366694;19;2237;-65
2023/06/12 09:37:18;;;;;;;;;;;;;;;;;;7368152;19;1814;-66
2023/06/12 09:39:46;;;;;;;;;;;;;;;;;;7369029;19;1853;-65
2023/06/12 09:42:17;;;;;;;;;;;;;;;;;;7370744;19;1470;-65
2023/06/12 09:44:45;;;;;;;;;;;;;;;;;;7371355;19;1842;-68
2023/06/12 09:47:15;;;;;;;;;;;;;;;;;;7371330;19;1595;-66
2023/06/12 09:49:46;;;;;;;;;;;;;;;;;;7365496;19;1891;-66
2023/06/12 09:52:14;;;;;;;;;;;;;;;;;;7366951;19;1921;-66
2023/06/12 09:54:42;;;;;;;;;;;;;;;;;;7372249;19;1580;-66
2023/06/12 09:57:10;;;;;;;;;;;;;;;;;;7372195;19;1440;-66
2023/06/12 09:59:38;;;;;;;;;;;;;;;;;;7369004;19;1984;-66
2023/06/12 10:02:07;;;;;;;;;;;;;;;;;;7370328;19;1455;-67
2023/06/12 10:04:36;;;;;;;;;;;;;;;;;;7370661;19;1707;-66
2023/06/12 10:07:05;;;;;;;;;;;;;;;;;;7368371;19;1667;-66
2023/06/12 10:09:33;;;;;;;;;;;;;;;;;;7370016;19;1488;-66
2023/06/12 10:12:01;;;;;;;;;;;;;;;;;;7367796;19;1273;-66
2023/06/12 10:14:29;;;;;;;;;;;;;;;;;;7367141;19;808;-65
2023/06/12 10:16:58;;;;;;;;;;;;;;;;;;7367514;19;863;-67
2023/06/12 10:19:26;;;;;;;;;;;;;;;;;;7365336;19;1849;-67
2023/06/12 10:21:54;;;;;;;;;;;;;;;;;;7366560;19;1303;-67
2023/06/12 10:24:22;;;;;;;;;;;;;;;;;;7368644;19;877;-66
2023/06/12 10:26:50;;;;;;;;;;;;;;;;;;7368515;19;832;-68
2023/06/12 10:29:19;;;;;;;;;;;;;;;;;;7369365;19;724;-67
2023/06/12 10:31:47;;;;;;;;;;;;;;;;;;7366704;19;1755;-67
2023/06/12 10:34:15;;;;;;;;;;;;;;;;;;7370266;19;1668;-65
2023/06/12 10:36:44;;;;;;;;;;;;;;;;;;7365436;19;809;-66
2023/06/12 10:39:12;;;;;;;;;;;;;;;;;;7364856;19;798;-67
2023/06/12 10:41:40;;;;;;;;;;;;;;;;;;7363991;19;1845;-66
2023/06/12 10:44:08;;;;;;;;;;;;;;;;;;7366863;19;822;-65
2023/06/12 10:46:36;;;;;;;;;;;;;;;;;;7367858;19;1622;-66
2023/06/12 10:49:05;;;;;;;;;;;;;;;;;;7366708;19;1982;-66
2023/06/12 10:51:33;;;;;;;;;;;;;;;;;;7370020;19;1476;-66
2023/06/12 10:54:03;;;;;;;;;;;;;;;;;;7366999;19;2105;-66
2023/06/12 10:56:31;;;;;;;;;;;;;;;;;;7368699;19;1822;-64
2023/06/12 10:59:00;;;;;;;;;;;;;;;;;;7363660;19;851;-66
2023/06/12 11:01:28;;;;;;;;;;;;;;;;;;7363445;19;1817;-66
2023/06/12 11:03:56;;;;;;;;;;;;;;;;;;7367762;19;1779;-66
2023/06/12 11:06:25;;;;;;;;;;;;;;;;;;7369699;19;1465;-66
2023/06/12 11:08:53;;;;;;;;;;;;;;;;;;7364491;19;801;-65
2023/06/12 11:11:21;;;;;;;;;;;;;;;;;;7368186;19;1665;-65
2023/06/12 11:13:49;;;;;;;;;;;;;;;;;;7369857;19;1739;-66
2023/06/12 11:16:19;;;;;;;;;;;;;;;;;;7370083;19;1672;-64
2023/06/12 11:18:47;;;;;;;;;;;;;;;;;;7367110;19;1930;-65
2023/06/12 11:21:15;;;;;;;;;;;;;;;;;;7367027;19;1853;-65
2023/06/12 11:23:43;;;;;;;;;;;;;;;;;;7368132;19;1852;-65
2023/06/12 11:26:12;;;;;;;;;;;;;;;;;;7368272;19;1435;-65
2023/06/12 11:28:40;;;;;;;;;;;;;;;;;;7364270;19;867;-66
2023/06/12 11:31:08;;;;;;;;;;;;;;;;;;7365890;19;787;-65
2023/06/12 11:33:36;;;;;;;;;;;;;;;;;;7364482;19;1875;-67
2023/06/12 11:36:04;;;;;;;;;;;;;;;;;;7368383;19;1663;-65
2023/06/12 11:38:32;;;;;;;;;;;;;;;;;;7362032;19;1978;-66
2023/06/12 11:41:01;;;;;;;;;;;;;;;;;;7367452;19;1972;-66
2023/06/12 11:43:30;;;;;;;;;;;;;;;;;;7363928;19;1699;-65
2023/06/12 11:45:58;;;;;;;;;;;;;;;;;;7368651;19;2010;-65
2023/06/12 11:48:26;;;;;;;;;;;;;;;;;;7366762;19;1755;-65
2023/06/12 11:50:54;;;;;;;;;;;;;;;;;;7367505;19;1453;-66
2023/06/12 11:53:23;;;;;;;;;;;;;;;;;;7361598;19;1917;-68
2023/06/12 11:55:51;;;;;;;;;;;;;;;;;;7368162;19;1771;-67
2023/06/12 11:58:19;;;;;;;;;;;;;;;;;;7367387;19;1466;-66
2023/06/12 12:00:49;;;;;;;;;;;;;;;;;;7362951;19;1846;-66
2023/06/12 12:03:17;;;;;;;;;;;;;;;;;;7361379;19;2250;-68
2023/06/12 12:05:45;;;;;;;;;;;;;;;;;;7369401;19;1381;-67
2023/06/12 12:08:13;;;;;;;;;;;;;;;;;;7363824;19;896;-66
2023/06/12 12:10:44;;;;;;;;;;;;;;;;;;7365736;19;1905;-66
2023/06/12 12:13:12;;;;;;;;;;;;;;;;;;7363865;19;1755;-66
2023/06/12 12:15:40;;;;;;;;;;;;;;;;;;7364303;19;1875;-66
2023/06/12 12:18:08;;;;;;;;;;;;;;;;;;7366218;19;1632;-66
2023/06/12 12:20:36;;;;;;;;;;;;;;;;;;7361618;19;1858;-66
2023/06/12 12:23:10;;;;;;;;;;;;;;;;;;7363273;19;1499;-66
2023/06/12 12:25:40;;;;;;;;;;;;;;;;;;7364783;19;691;-66
2023/06/12 12:28:08;;;;;;;;;;;;;;;;;;7363620;19;803;-67
2023/06/12 12:30:36;;;;;;;;;;;;;;;;;;7363414;19;793;-66
2023/06/12 12:33:05;;;;;;;;;;;;;;;;;;7360992;19;1331;-66
2023/06/12 12:35:33;;;;;;;;;;;;;;;;;;7363917;19;858;-66
2023/06/12 12:38:03;;;;;;;;;;;;;;;;;;7364029;19;852;-67
2023/06/12 12:40:31;;;;;;;;;;;;;;;;;;7369573;19;1845;-66
2023/06/12 12:42:59;;;;;;;;;;;;;;;;;;7368705;19;1293;-65
2023/06/12 12:45:28;;;;;;;;;;;;;;;;;;7370282;19;800;-67
2023/06/12 12:47:56;;;;;;;;;;;;;;;;;;7368914;19;796;-66
2023/06/12 12:50:24;;;;;;;;;;;;;;;;;;7369151;19;810;-68
2023/06/12 12:52:52;;;;;;;;;;;;;;;;;;7368066;19;1327;-66
2023/06/12 12:55:20;;;;;;;;;;;;;;;;;;7369567;19;860;-67
2023/06/12 12:57:48;;;;;;;;;;;;;;;;;;7369016;19;801;-67
2023/06/12 13:00:17;;;;;;;;;;;;;;;;;;7369305;19;1826;-66
2023/06/12 13:02:45;;;;;;;;;;;;;;;;;;7368270;19;1252;-66
2023/06/12 13:05:13;;;;;;;;;;;;;;;;;;7369461;19;751;-66
2023/06/12 13:07:42;;;;;;;;;;;;;;;;;;7368824;19;802;-67
2023/06/12 13:10:10;;;;;;;;;;;;;;;;;;7366578;19;826;-66
2023/06/12 13:12:39;;;;;;;;;;;;;;;;;;7368965;19;4344;-66
2023/06/12 13:15:07;;;;;;;;;;;;;;;;;;7367419;19;1892;-65
2023/06/12 13:17:35;;;;;;;;;;;;;;;;;;7370715;19;1800;-66
2023/06/12 13:20:03;;;;;;;;;;;;;;;;;;7372853;19;1683;-66
2023/06/12 13:22:32;;;;;;;;;;;;;;;;;;7370128;19;1907;-66
2023/06/12 13:25:00;;;;;;;;;;;;;;;;;;7371701;19;2009;-67
2023/06/12 13:27:28;;;;;;;;;;;;;;;;;;7373433;19;1474;-67
2023/06/12 13:29:56;;;;;;;;;;;;;;;;;;7366373;19;1981;-67
2023/06/12 13:32:24;;;;;;;;;;;;;;;;;;7354427;19;1877;-66
2023/06/12 13:34:53;;;;;;;;;;;;;;;;;;7354429;19;1905;-65
2023/06/12 13:37:21;;;;;;;;;;;;;;;;;;7353320;19;2066;-65
2023/06/12 13:39:50;;;;;;;;;;;;;;;;;;7358016;19;2143;-67
2023/06/12 13:42:18;;;;;;;;;;;;;;;;;;7368398;19;1882;-66
2023/06/12 13:44:47;;;;;;;;;;;;;;;;;;7369359;19;1872;-66
2023/06/12 13:47:15;;;;;;;;;;;;;;;;;;7369808;19;1760;-67
2023/06/12 13:49:43;;;;;;;;;;;;;;;;;;7368164;19;1907;-67
2023/06/12 13:52:13;;;;;;;;;;;;;;;;;;7370446;19;1634;-67
2023/06/12 13:54:41;;;;;;;;;;;;;;;;;;7371968;19;1620;-67
2023/06/12 13:57:10;;;;;;;;;;;;;;;;;;7369967;19;2281;-66
2023/06/12 13:59:39;;;;;;;;;;;;;;;;;;7370135;19;1877;-67
2023/06/12 14:02:07;;;;;;;;;;;;;;;;;;7368655;19;1865;-67
2023/06/12 14:04:36;;;;;;;;;;;;;;;;;;7371112;19;1901;-67
2023/06/12 14:07:04;;;;;;;;;;;;;;;;;;7369675;19;1745;-67
2023/06/12 14:09:32;;;;;;;;;;;;;;;;;;7370972;19;1690;-67
2023/06/12 14:12:00;;;;;;;;;;;;;;;;;;7367075;19;1892;-67
2023/06/12 14:14:28;;;;;;;;;;;;;;;;;;7369578;19;1744;-66
2023/06/12 14:16:57;;;;;;;;;;;;;;;;;;7369684;19;1810;-66
2023/06/12 14:19:25;;;;;;;;;;;;;;;;;;7369199;19;1715;-67
2023/06/12 14:21:53;;;;;;;;;;;;;;;;;;7368374;19;1860;-66
2023/06/12 14:24:21;;;;;;;;;;;;;;;;;;7369455;19;1999;-65
2023/06/12 14:26:49;;;;;;;;;;;;;;;;;;7370850;19;1863;-66
2023/06/12 14:29:17;;;;;;;;;;;;;;;;;;7370759;19;1423;-66
2023/06/12 14:31:45;;;;;;;;;;;;;;;;;;7370533;19;1287;-66
2023/06/12 14:34:14;;;;;;;;;;;;;;;;;;7367022;19;1975;-66
2023/06/12 14:36:42;;;;;;;;;;;;;;;;;;7368383;19;1728;-66
2023/06/12 14:39:10;;;;;;;;;;;;;;;;;;7366991;19;1937;-67
2023/06/12 14:41:38;;;;;;;;;;;;;;;;;;7368778;19;1846;-67
2023/06/12 14:44:06;;;;;;;;;;;;;;;;;;7364798;19;771;-67
2023/06/12 14:46:34;;;;;;;;;;;;;;;;;;7366922;19;742;-66
2023/06/12 14:49:02;;;;;;;;;;;;;;;;;;7365412;19;796;-67
2023/06/12 14:51:30;;;;;;;;;;;;;;;;;;7364714;19;1363;-67
2023/06/12 14:53:59;;;;;;;;;;;;;;;;;;7366893;19;794;-67
2023/06/12 14:56:27;;;;;;;;;;;;;;;;;;7364793;19;1906;-67
2023/06/12 14:58:55;;;;;;;;;;;;;;;;;;7365366;19;1937;-66
2023/06/12 15:01:23;;;;;;;;;;;;;;;;;;7366154;19;2167;-66
2023/06/12 15:03:51;;;;;;;;;;;;;;;;;;7367803;19;1948;-66
2023/06/12 15:06:19;;;;;;;;;;;;;;;;;;7369907;19;1866;-67
2023/06/12 15:08:48;;;;;;;;;;;;;;;;;;7368494;19;1718;-67
2023/06/12 15:11:17;;;;;;;;;;;;;;;;;;7366392;19;1276;-67
2023/06/12 15:13:45;;;;;;;;;;;;;;;;;;7362968;19;1868;-67
2023/06/12 15:16:13;;;;;;;;;;;;;;;;;;7368770;19;1667;-67
2023/06/12 15:18:41;;;;;;;;;;;;;;;;;;7365312;19;734;-67
2023/06/12 15:21:09;;;;;;;;;;;;;;;;;;7365384;19;1841;-67
2023/06/12 15:23:37;;;;;;;;;;;;;;;;;;7362902;19;1261;-67
2023/06/12 15:26:05;;;;;;;;;;;;;;;;;;7366023;19;876;-66
2023/06/12 15:28:34;;;;;;;;;;;;;;;;;;7365182;19;791;-66
2023/06/12 15:31:02;;;;;;;;;;;;;;;;;;7366040;19;842;-67
2023/06/12 15:33:31;;;;;;;;;;;;;;;;;;7362408;19;1274;-67
2023/06/12 15:35:59;;;;;;;;;;;;;;;;;;7365707;19;904;-66
2023/06/12 15:38:27;;;;;;;;;;;;;;;;;;7364876;19;873;-66
2023/06/12 15:40:55;;;;;;;;;;;;;;;;;;7365743;19;1837;-67
2023/06/12 15:43:23;;;;;;;;;;;;;;;;;;7362346;19;1211;-67
2023/06/12 15:45:55;;;;;;;;;;;;;;;;;;7365254;19;791;-66
2023/06/12 15:48:23;;;;;;;;;;;;;;;;;;7362499;19;1777;-66
2023/06/12 15:50:51;;;;;;;;;;;;;;;;;;7369097;19;1496;-67
2023/06/12 15:53:19;;;;;;;;;;;;;;;;;;7365799;19;1338;-67
2023/06/12 15:55:48;;;;;;;;;;;;;;;;;;7364614;19;2000;-65
2023/06/12 15:58:16;;;;;;;;;;;;;;;;;;7365855;19;1727;-66
2023/06/12 16:00:44;;;;;;;;;;;;;;;;;;7368107;19;2007;-66
2023/06/12 16:03:12;;;;;;;;;;;;;;;;;;7363097;19;1830;-67
2023/06/12 16:05:40;;;;;;;;;;;;;;;;;;7367289;19;1959;-66
2023/06/12 16:08:08;;;;;;;;;;;;;;;;;;7367469;19;1646;-66
2023/06/12 16:10:36;;;;;;;;;;;;;;;;;;7364975;19;1811;-66
2023/06/12 16:13:05;;;;;;;;;;;;;;;;;;7363947;19;1944;-67
2023/06/12 16:15:33;;;;;;;;;;;;;;;;;;7366747;19;2114;-66
2023/06/12 16:18:01;;;;;;;;;;;;;;;;;;7365982;19;1718;-67
2023/06/12 16:20:29;;;;;;;;;;;;;;;;;;7365355;19;2111;-66
2023/06/12 16:22:58;;;;;;;;;;;;;;;;;;7366134;19;1833;-66
2023/06/12 16:25:26;;;;;;;;;;;;;;;;;;7364660;19;1871;-67
2023/06/12 16:27:54;;;;;;;;;;;;;;;;;;7364301;19;1765;-66
2023/06/12 16:30:23;;;;;;;;;;;;;;;;;;7365571;19;1625;-67
2023/06/12 16:32:51;;;;;;;;;;;;;;;;;;7365902;19;1890;-66
2023/06/12 16:35:19;;;;;;;;;;;;;;;;;;7366937;19;1722;-66
2023/06/12 16:37:48;;;;;;;;;;;;;;;;;;7366625;19;1672;-67
2023/06/12 16:40:16;;;;;;;;;;;;;;;;;;7364772;19;1849;-67
2023/06/12 16:42:44;;;;;;;;;;;;;;;;;;7365067;19;1977;-66
2023/06/12 16:45:12;;;;;;;;;;;;;;;;;;7367326;19;1635;-67
2023/06/12 16:47:40;;;;;;;;;;;;;;;;;;7362810;19;1958;-66
2023/06/12 16:50:08;;;;;;;;;;;;;;;;;;7366645;19;1700;-66
2023/06/12 16:52:36;;;;;;;;;;;;;;;;;;7366001;19;1696;-66
2023/06/12 16:55:05;;;;;;;;;;;;;;;;;;7364095;19;2139;-67
2023/06/12 16:57:33;;;;;;;;;;;;;;;;;;7366541;19;1482;-65
2023/06/12 17:00:01;;;;;;;;;;;;;;;;;;7364034;19;2080;-67
2023/06/12 17:02:29;;;;;;;;;;;;;;;;;;7361983;19;1906;-67
2023/06/12 17:04:57;;;;;;;;;;;;;;;;;;7365770;19;1947;-67
2023/06/12 17:07:25;;;;;;;;;;;;;;;;;;7366415;19;1473;-65
2023/06/12 17:09:54;;;;;;;;;;;;;;;;;;7363856;19;2038;-65
2023/06/12 17:12:22;;;;;;;;;;;;;;;;;;7360911;19;1996;-66
2023/06/12 17:14:50;;;;;;;;;;;;;;;;;;7359071;19;1877;-66